Time;durP1;ratioP1;P1;durP2;ratioP2;P2;SDS_P1;SDS_P2;PMS_P1;PMS_P2;Temp;Humidity;BMP_temperature;BMP_pressure;BME280_temperature;BME280_humidity;BME280_pressure;Samples;Min_cycle;Max_cycle;Signal;HPM_P1;HPM_P2
2021/03/22 00:00:47;;;;;;;12.53;8.20;;;;;;;-0.14;88.27;97781.02;124411;1116;26414;-76
2021/03/22 00:03:15;;;;;;;15.50;7.93;;;;;;;-0.15;88.59;97782.06;124425;1116;23094;-76
2021/03/22 00:05:42;;;;;;;13.90;7.70;;;;;;;-0.13;87.99;97798.74;124373;1114;27361;-76
2021/03/22 00:08:09;;;;;;;17.73;11.27;;;;;;;-0.11;88.48;97802.05;124376;1114;24656;-76
2021/03/22 00:10:41;;;;;;;16.70;9.90;;;;;;;-0.11;87.50;97802.05;124370;1116;23043;-76
2021/03/22 00:13:08;;;;;;;16.60;9.47;;;;;;;-0.12;87.75;97806.59;124393;1116;23238;-76
2021/03/22 00:15:36;;;;;;;18.83;10.37;;;;;;;-0.08;88.28;97807.84;124426;1115;27313;-76
2021/03/22 00:18:07;;;;;;;19.05;9.25;;;;;;;-0.06;88.62;97813.83;124483;1115;23043;-76
2021/03/22 00:20:35;;;;;;;14.73;7.57;;;;;;;-0.06;88.52;97816.50;124447;1115;23083;-76
2021/03/22 00:23:02;;;;;;;12.93;8.37;;;;;;;-0.06;88.05;97821.86;124462;1116;23239;-76
2021/03/22 00:25:29;;;;;;;13.40;6.80;;;;;;;-0.05;87.73;97820.03;124432;1114;27354;-76
2021/03/22 00:27:56;;;;;;;13.57;7.90;;;;;;;-0.03;87.37;97823.34;124356;1113;26083;-76
2021/03/22 00:30:27;;;;;;;15.10;8.53;;;;;;;-0.02;87.38;97823.15;124426;1114;23165;-76
2021/03/22 00:32:54;;;;;;;18.13;9.07;;;;;;;-0.01;86.80;97826.64;124424;1115;24834;-76
2021/03/22 00:35:21;;;;;;;15.95;9.95;;;;;;;-0.02;87.94;97814.27;124493;1116;23271;-76
2021/03/22 00:37:50;;;;;;;16.30;8.83;;;;;;;-0.01;88.15;97827.46;124527;1114;23126;-76
2021/03/22 00:40:19;;;;;;;15.65;9.30;;;;;;;-0.01;87.66;97826.64;124385;1116;23163;-76
2021/03/22 00:42:46;;;;;;;16.02;8.05;;;;;;;-0.02;86.65;97816.94;124529;1115;23092;-76
2021/03/22 00:45:14;;;;;;;20.95;10.15;;;;;;;-0.01;87.38;97823.97;124499;1114;23116;-76
2021/03/22 00:47:42;;;;;;;14.23;7.67;;;;;;;-0.02;87.11;97825.83;124407;1115;24091;-76
2021/03/22 00:50:17;;;;;;;14.45;8.20;;;;;;;-0.02;86.04;97824.97;124424;1113;23113;-76
2021/03/22 00:52:44;;;;;;;16.47;10.20;;;;;;;-0.04;85.89;97819.81;124403;1116;27313;-76
2021/03/22 00:55:10;;;;;;;19.20;9.70;;;;;;;-0.04;86.09;97827.84;124427;1115;26601;-76
2021/03/22 00:57:37;;;;;;;11.83;7.50;;;;;;;-0.06;84.80;97821.86;124377;1114;24667;-76
2021/03/22 01:00:09;;;;;;;12.07;7.03;;;;;;;-0.08;84.95;97831.11;124480;1114;26536;-76
2021/03/22 01:02:36;;;;;;;16.70;8.90;;;;;;;-0.09;85.09;97829.44;124436;1114;23161;-76
2021/03/22 01:05:04;;;;;;;10.80;7.33;;;;;;;-0.08;85.28;97829.25;124404;1116;23020;-76
2021/03/22 01:07:31;;;;;;;13.67;7.17;;;;;;;-0.08;84.96;97831.93;124420;1115;23034;-76
2021/03/22 01:09:57;;;;;;;14.30;7.05;;;;;;;-0.09;85.03;97824.09;124371;1115;23093;-76
2021/03/22 01:12:24;;;;;;;14.80;8.47;;;;;;;-0.10;84.75;97836.66;124392;1114;23238;-76
2021/03/22 01:14:51;;;;;;;11.57;7.00;;;;;;;-0.10;85.17;97838.51;124398;1116;23236;-76
2021/03/22 01:17:17;;;;;;;17.33;8.23;;;;;;;-0.10;85.03;97841.19;124367;1115;23165;-76
2021/03/22 01:19:44;;;;;;;15.83;8.63;;;;;;;-0.12;85.28;97835.20;124500;1115;23468;-76
2021/03/22 01:22:11;;;;;;;13.13;7.73;;;;;;;-0.12;84.90;97837.88;124411;1114;26224;-76
2021/03/22 01:24:38;;;;;;;16.95;9.70;;;;;;;-0.13;84.27;97844.23;124425;1114;23064;-76
2021/03/22 01:27:07;;;;;;;16.03;8.60;;;;;;;-0.15;85.37;97848.95;124460;1115;27377;-76
2021/03/22 01:29:37;;;;;;;13.00;7.75;;;;;;;-0.16;84.58;97844.61;124501;1116;23132;-77
2021/03/22 01:32:10;;;;;;;14.47;7.93;;;;;;;-0.17;85.44;97851.82;124408;1115;26414;-77
2021/03/22 01:34:36;;;;;;;17.00;9.73;;;;;;;-0.18;84.78;97844.80;124409;1116;23089;-77
2021/03/22 01:37:04;;;;;;;15.27;10.03;;;;;;;-0.17;85.58;97851.00;124362;1115;23104;-76
2021/03/22 01:39:35;;;;;;;11.77;7.77;;;;;;;-0.17;85.29;97851.00;124455;1115;26578;-76
2021/03/22 01:42:27;;;;;;;14.47;8.47;;;;;;;-0.15;85.18;97856.98;124442;1114;23236;-76
2021/03/22 01:45:00;;;;;;;12.60;7.73;;;;;;;-0.16;85.70;97860.66;124425;1115;23099;-76
2021/03/22 01:47:30;;;;;;;12.90;7.85;;;;;;;-0.18;84.67;97860.03;124367;1116;27525;-76
2021/03/22 01:50:05;;;;;;;12.40;7.77;;;;;;;-0.18;83.89;97858.18;124499;1113;26431;-76
2021/03/22 01:52:35;;;;;;;11.25;6.75;;;;;;;-0.20;82.75;97858.36;124495;1115;23103;-76
2021/03/22 01:55:04;;;;;;;17.97;9.07;;;;;;;-0.21;83.04;97864.75;124402;1113;23257;-76
2021/03/22 01:57:36;;;;;;;12.53;6.65;;;;;;;-0.20;83.01;97861.04;124430;1116;23092;-76
2021/03/22 02:00:15;;;;;;;9.90;5.80;;;;;;;-0.22;82.26;97860.41;124428;1114;23024;-76
2021/03/22 02:02:44;;;;;;;11.23;6.17;;;;;;;-0.24;81.27;97862.45;124427;1112;24731;-77
2021/03/22 02:05:17;;;;;;;5.93;4.23;;;;;;;-0.27;81.19;97867.36;124541;1113;23232;-77
2021/03/22 02:07:49;;;;;;;8.80;4.97;;;;;;;-0.31;80.47;97866.91;124419;1113;24687;-76
2021/03/22 02:10:16;;;;;;;6.93;4.10;;;;;;;-0.31;80.60;97866.09;124454;1113;27543;-76
2021/03/22 02:12:42;;;;;;;7.53;4.23;;;;;;;-0.33;81.47;97862.78;124436;1113;26487;-76
2021/03/22 02:15:10;;;;;;;7.37;4.97;;;;;;;-0.35;80.65;97864.79;124577;1112;23086;-76
2021/03/22 02:18:09;;;;;;;9.50;5.73;;;;;;;-0.37;81.37;97865.01;124616;1111;23028;-76
2021/03/22 02:21:07;;;;;;;6.42;4.15;;;;;;;-0.37;81.50;97869.51;124552;1111;23082;-76
2021/03/22 02:24:05;;;;;;;7.53;4.40;;;;;;;-0.44;80.86;97870.28;124564;1113;26581;-76
2021/03/22 02:26:32;;;;;;;7.53;4.43;;;;;;;-0.46;81.40;97868.80;124452;1113;23339;-76
2021/03/22 02:29:17;;;;;;;7.87;4.10;;;;;;;-0.47;80.72;97880.53;124557;1113;23203;-76
2021/03/22 02:32:11;;;;;;;7.23;4.27;;;;;;;-0.50;81.05;97868.34;124626;1112;23288;-76
2021/03/22 02:34:48;;;;;;;6.95;3.25;;;;;;;-0.54;80.19;97879.63;124606;1113;26441;-76
2021/03/22 02:37:46;;;;;;;6.57;3.73;;;;;;;-0.58;80.55;97884.52;124632;1111;23158;-76
2021/03/22 02:40:37;;;;;;;6.67;3.80;;;;;;;-0.61;81.17;97883.03;124422;1113;23079;-76
2021/03/22 02:43:05;;;;;;;7.45;4.35;;;;;;;-0.63;79.64;97886.93;124564;1111;23029;-76
2021/03/22 02:45:39;;;;;;;9.10;4.85;;;;;;;-0.65;80.75;97888.97;124445;1113;23224;-76
2021/03/22 02:48:08;;;;;;;6.10;3.95;;;;;;;-0.67;79.91;97896.35;124422;1113;27521;-76
2021/03/22 02:50:37;;;;;;;7.12;4.00;;;;;;;-0.69;80.11;97895.69;124462;1113;24667;-76
2021/03/22 02:53:22;;;;;;;7.90;4.70;;;;;;;-0.73;80.13;97900.58;124708;1111;27518;-76
2021/03/22 02:56:14;;;;;;;10.07;5.10;;;;;;;-0.74;80.81;97909.62;124440;1113;23106;-76
2021/03/22 02:58:45;;;;;;;8.17;5.07;;;;;;;-0.76;81.24;97906.32;124627;1111;23242;-76
2021/03/22 03:01:24;;;;;;;8.57;5.00;;;;;;;-0.78;80.23;97913.67;124583;1113;26221;-76
2021/03/22 03:03:54;;;;;;;10.70;5.75;;;;;;;-0.80;79.93;97921.05;124609;1112;23107;-77
2021/03/22 03:06:21;;;;;;;6.53;4.00;;;;;;;-0.82;79.79;97923.91;124481;1113;23096;-76
2021/03/22 03:08:48;;;;;;;7.50;4.95;;;;;;;-0.86;78.99;97917.28;124477;1113;23086;-76
2021/03/22 03:11:15;;;;;;;8.17;5.70;;;;;;;-0.85;80.25;97921.63;124618;1111;23239;-76
2021/03/22 03:13:42;;;;;;;9.77;5.57;;;;;;;-0.86;80.09;97927.97;124559;1111;27361;-76
2021/03/22 03:16:09;;;;;;;10.03;5.70;;;;;;;-0.87;80.05;97936.17;124410;1113;23036;-76
2021/03/22 03:18:36;;;;;;;9.00;4.85;;;;;;;-0.90;78.77;97933.86;124399;1112;26411;-77
2021/03/22 03:21:04;;;;;;;7.83;5.17;;;;;;;-0.92;79.15;97941.23;124613;1111;23077;-76
2021/03/22 03:23:30;;;;;;;4.65;3.35;;;;;;;-0.96;78.58;97951.47;124506;1113;27309;-76
2021/03/22 03:25:57;;;;;;;6.33;4.07;;;;;;;-1.01;77.61;97937.83;124484;1111;23046;-76
2021/03/22 03:28:24;;;;;;;7.93;3.93;;;;;;;-1.06;77.18;97943.74;124626;1113;26038;-76
2021/03/22 03:30:51;;;;;;;4.80;2.57;;;;;;;-1.08;76.65;97948.44;124491;1113;26446;-76
2021/03/22 03:33:17;;;;;;;4.17;2.60;;;;;;;-1.12;76.34;97947.12;124812;1113;23030;-76
2021/03/22 03:35:44;;;;;;;6.40;3.93;;;;;;;-1.17;75.87;97944.17;124615;1113;23901;-76
2021/03/22 03:38:12;;;;;;;6.80;3.73;;;;;;;-1.18;76.84;97951.37;124678;1112;23028;-76
2021/03/22 03:40:43;;;;;;;4.67;2.80;;;;;;;-1.21;76.98;97951.72;124662;1111;23044;-76
2021/03/22 03:43:10;;;;;;;6.70;3.60;;;;;;;-1.24;76.49;97946.77;124478;1113;23083;-76
2021/03/22 03:45:41;;;;;;;7.23;4.33;;;;;;;-1.26;77.50;97961.30;124604;1111;23039;-76
2021/03/22 03:48:10;;;;;;;7.53;3.50;;;;;;;-1.25;77.31;97957.63;124700;1111;23099;-76
2021/03/22 03:50:37;;;;;;;;;;;;;;;-1.26;77.86;97962.12;124857;1111;23092;-76
2021/03/22 03:53:05;;;;;;;5.45;3.55;;;;;;;-1.29;77.32;97958.98;124597;1111;21543;-76
2021/03/22 03:55:32;;;;;;;7.27;4.03;;;;;;;-1.27;77.69;97967.67;124508;1113;23039;-77
2021/03/22 03:57:59;;;;;;;5.33;3.33;;;;;;;-1.28;77.39;97968.67;124774;1112;23089;-76
2021/03/22 04:00:27;;;;;;;10.23;4.63;;;;;;;-1.27;77.76;97978.36;124664;1112;23160;-76
2021/03/22 04:02:56;;;;;;;5.72;3.27;;;;;;;-1.28;77.57;97974.84;124671;1113;23192;-76
2021/03/22 04:05:26;;;;;;;9.10;3.23;;;;;;;-1.28;76.27;97976.69;124668;1113;23218;-76
2021/03/22 04:07:53;;;;;;;4.47;3.17;;;;;;;-1.31;76.85;97985.91;124490;1112;23281;-76
2021/03/22 04:10:20;;;;;;;5.03;2.67;;;;;;;-1.32;76.92;97988.75;124516;1113;27332;-76
2021/03/22 04:12:47;;;;;;;6.83;3.13;;;;;;;-1.35;75.91;97981.91;124717;1111;23095;-76
2021/03/22 04:15:15;;;;;;;8.57;3.90;;;;;;;-1.36;76.74;97991.78;124648;1113;23238;-76
2021/03/22 04:17:43;;;;;;;6.33;3.80;;;;;;;-1.35;76.88;97992.59;124701;1113;23641;-76
2021/03/22 04:20:11;;;;;;;8.37;3.97;;;;;;;-1.36;77.03;97991.78;124619;1113;27555;-76
2021/03/22 04:22:38;;;;;;;7.63;3.93;;;;;;;-1.35;77.48;97995.27;124714;1113;24671;-76
2021/03/22 04:25:06;;;;;;;7.20;3.30;;;;;;;-1.36;78.20;98001.64;124650;1113;23040;-76
2021/03/22 04:27:32;;;;;;;7.90;4.55;;;;;;;-1.38;78.51;98004.48;124606;1112;23103;-76
2021/03/22 04:29:59;;;;;;;10.15;5.00;;;;;;;-1.38;79.21;98009.83;124543;1112;23100;-76
2021/03/22 04:32:26;;;;;;;6.33;4.63;;;;;;;-1.38;79.25;98012.50;124555;1111;23083;-76
2021/03/22 04:34:52;;;;;;;5.87;3.37;;;;;;;-1.38;78.70;98025.00;124527;1113;23238;-76
2021/03/22 04:37:19;;;;;;;8.50;4.30;;;;;;;-1.39;78.83;98015.34;124456;1111;23083;-76
2021/03/22 04:39:46;;;;;;;9.73;5.37;;;;;;;-1.39;79.27;98023.36;124540;1113;24380;-76
2021/03/22 04:42:13;;;;;;;11.33;5.33;;;;;;;-1.41;79.68;98020.86;124758;1112;24632;-76
2021/03/22 04:44:40;;;;;;;8.77;4.63;;;;;;;-1.40;79.86;98027.02;124701;1113;24573;-76
2021/03/22 04:47:07;;;;;;;8.40;5.70;;;;;;;-1.40;79.67;98027.87;124598;1113;23075;-76
2021/03/22 04:49:34;;;;;;;12.50;6.70;;;;;;;-1.39;80.26;98031.37;124487;1113;23090;-76
2021/03/22 04:52:01;;;;;;;9.75;5.50;;;;;;;-1.40;80.31;98032.36;124805;1112;23089;-76
2021/03/22 04:54:28;;;;;;;8.85;4.60;;;;;;;-1.42;80.60;98029.87;124621;1113;23238;-76
2021/03/22 04:56:55;;;;;;;13.33;7.07;;;;;;;-1.42;80.92;98035.21;124576;1112;27475;-76
2021/03/22 04:59:22;;;;;;;14.23;5.83;;;;;;;-1.44;80.98;98047.91;124801;1111;23080;-76
2021/03/22 05:01:49;;;;;;;11.43;5.90;;;;;;;-1.43;80.90;98046.92;124524;1113;23288;-76
2021/03/22 05:04:15;;;;;;;11.40;6.57;;;;;;;-1.42;80.81;98048.56;124611;1113;23025;-76
2021/03/22 05:06:42;;;;;;;15.40;7.35;;;;;;;-1.39;81.24;98053.55;124743;1111;23461;-77
2021/03/22 05:09:08;;;;;;;14.13;6.30;;;;;;;-1.38;80.97;98049.89;124457;1113;23354;-77
2021/03/22 05:11:35;;;;;;;11.07;6.00;;;;;;;-1.36;80.70;98063.07;124726;1111;23036;-77
2021/03/22 05:14:02;;;;;;;13.97;6.83;;;;;;;-1.37;80.79;98050.71;124599;1111;23084;-77
2021/03/22 05:16:30;;;;;;;11.20;6.13;;;;;;;-1.34;81.27;98053.03;124509;1113;27319;-77
2021/03/22 05:18:56;;;;;;;8.90;4.53;;;;;;;-1.36;80.72;98061.22;124462;1113;23020;-76
2021/03/22 05:21:23;;;;;;;12.37;7.43;;;;;;;-1.36;80.48;98053.20;124599;1113;23037;-76
2021/03/22 05:23:50;;;;;;;14.85;7.05;;;;;;;-1.37;80.88;98062.22;124549;1113;23457;-77
2021/03/22 05:26:17;;;;;;;12.77;6.97;;;;;;;-1.36;81.01;98063.89;124539;1113;24666;-77
2021/03/22 05:28:44;;;;;;;9.80;6.83;;;;;;;-1.38;80.50;98065.06;124436;1113;23089;-77
2021/03/22 05:31:11;;;;;;;15.07;8.43;;;;;;;-1.40;80.78;98065.27;124534;1113;22997;-78
2021/03/22 05:33:38;;;;;;;12.90;6.65;;;;;;;-1.39;80.97;98072.25;124568;1113;26083;-77
2021/03/22 05:36:05;;;;;;;13.80;7.70;;;;;;;-1.40;80.54;98073.28;124568;1113;23070;-77
2021/03/22 05:38:32;;;;;;;10.50;5.83;;;;;;;-1.39;81.25;98082.94;124580;1113;23122;-77
2021/03/22 05:41:06;;;;;;;10.00;6.23;;;;;;;-1.37;80.32;98080.09;124779;1111;23066;-77
2021/03/22 05:43:47;;;;;;;12.10;5.00;;;;;;;-1.37;80.39;98086.25;124728;1113;23028;-77
2021/03/22 05:46:40;;;;;;;10.93;6.47;;;;;;;-1.38;80.25;98081.94;124472;1111;23236;-77
2021/03/22 05:49:35;;;;;;;11.10;4.43;;;;;;;-1.41;79.66;98094.81;124561;1111;23096;-77
2021/03/22 05:52:19;;;;;;;13.27;6.60;;;;;;;-1.45;79.34;98105.02;124691;1111;23239;-77
2021/03/22 05:54:52;;;;;;;9.77;6.53;;;;;;;-1.48;79.24;98105.37;124764;1111;23030;-77
2021/03/22 05:57:35;;;;;;;13.33;5.23;;;;;;;-1.48;79.32;98105.37;124600;1113;23092;-77
2021/03/22 06:00:21;;;;;;;12.63;6.23;;;;;;;-1.48;79.46;98116.05;124532;1113;24634;-77
2021/03/22 06:02:50;;;;;;;10.77;5.57;;;;;;;-1.45;79.94;98121.05;124681;1112;26466;-77
2021/03/22 06:05:36;;;;;;;;;;;;;;;-1.41;79.86;98124.20;124616;1112;27540;-77
2021/03/22 06:08:32;;;;;;;6.97;4.77;;;;;;;-1.40;79.26;98113.34;124477;1113;25713;-77
2021/03/22 06:11:06;;;;;;;7.53;4.50;;;;;;;-1.36;79.53;98122.65;124512;1111;23082;-77
2021/03/22 06:13:41;;;;;;;9.93;5.03;;;;;;;-1.34;79.37;98115.28;124731;1112;23023;-77
2021/03/22 06:16:25;;;;;;;11.47;5.20;;;;;;;-1.31;78.84;98116.79;124636;1113;23101;-77
2021/03/22 06:19:09;;;;;;;10.57;5.40;;;;;;;-1.26;78.57;98125.07;124522;1113;23023;-77
2021/03/22 06:21:39;;;;;;;13.60;7.03;;;;;;;-1.21;78.97;98132.56;124809;1112;26495;-77
2021/03/22 06:24:19;;;;;;;11.80;5.33;;;;;;;-1.17;78.58;98123.17;124557;1111;26473;-77
2021/03/22 06:26:58;;;;;;;10.57;5.30;;;;;;;-1.11;78.82;98125.15;124610;1112;23235;-77
2021/03/22 06:29:31;;;;;;;8.90;4.50;;;;;;;-1.03;78.04;98125.06;124550;1111;23167;-77
2021/03/22 06:32:23;;;;;;;10.27;5.83;;;;;;;-0.97;78.47;98124.37;124666;1111;26520;-77
2021/03/22 06:34:55;;;;;;;13.30;5.10;;;;;;;-0.93;78.28;98129.36;124502;1112;26485;-77
2021/03/22 06:37:34;;;;;;;8.67;3.87;;;;;;;-0.91;76.71;98138.02;124639;1113;22840;-77
2021/03/22 06:40:13;;;;;;;5.03;3.67;;;;;;;-0.90;77.06;98142.34;124574;1114;23033;-77
2021/03/22 06:42:42;;;;;;;8.65;4.45;;;;;;;-0.91;76.46;98133.50;124525;1115;23065;-77
2021/03/22 06:45:28;;;;;;;10.35;4.62;;;;;;;-0.92;76.67;98142.55;124546;1115;23046;-77
2021/03/22 06:48:16;;;;;;;10.67;4.33;;;;;;;-0.94;76.16;98143.72;124454;1114;24563;-77
2021/03/22 06:50:43;;;;;;;8.20;3.93;;;;;;;-0.94;76.43;98149.06;124544;1115;23026;-77
2021/03/22 06:53:30;;;;;;;10.37;4.60;;;;;;;-0.91;76.25;98152.21;124458;1115;23033;-77
2021/03/22 06:56:12;;;;;;;5.97;3.47;;;;;;;-0.87;76.26;98150.83;124631;1115;23302;-77
2021/03/22 06:58:39;;;;;;;9.07;4.23;;;;;;;-0.82;75.64;98150.30;124624;1114;26137;-78
2021/03/22 07:01:28;;;;;;;7.17;3.67;;;;;;;-0.80;75.40;98159.83;124604;1115;23242;-77
2021/03/22 07:04:30;;;;;;;9.25;3.98;;;;;;;-0.77;75.26;98159.45;124567;1115;27556;-78
2021/03/22 07:07:22;;;;;;;8.57;3.03;;;;;;;-0.73;74.61;98165.27;124570;1115;27673;-78
2021/03/22 07:09:59;;;;;;;11.63;3.90;;;;;;;-0.69;75.43;98171.93;124565;1116;24571;-77
2021/03/22 07:12:33;;;;;;;3.97;2.77;;;;;;;-0.66;73.77;98170.73;124488;1115;23026;-77
2021/03/22 07:15:28;;;;;;;7.83;3.33;;;;;;;-0.59;75.46;98169.81;124661;1116;26402;-77
2021/03/22 07:18:33;;;;;;;7.40;3.53;;;;;;;-0.46;74.50;98174.56;124521;1114;23114;-77
2021/03/22 07:21:00;;;;;;;6.20;2.67;;;;;;;-0.40;72.27;98178.36;124734;1114;23059;-77
2021/03/22 07:23:49;;;;;;;11.30;3.00;;;;;;;-0.33;72.14;98178.47;124513;1116;24865;-77
2021/03/22 07:26:50;;;;;;;9.28;3.45;;;;;;;-0.24;72.93;98191.56;124431;1116;24670;-77
2021/03/22 07:29:42;;;;;;;5.03;2.30;;;;;;;-0.15;70.20;98186.14;124428;1115;23034;-77
2021/03/22 07:32:33;;;;;;;6.20;2.70;;;;;;;-0.11;70.87;98187.43;124398;1114;23088;-77
2021/03/22 07:35:30;;;;;;;7.10;2.67;;;;;;;0.01;71.14;98201.20;124376;1115;23196;-77
2021/03/22 07:38:39;;;;;;;7.60;2.75;;;;;;;0.15;69.65;98198.52;124411;1115;26415;-77
2021/03/22 07:41:24;;;;;;;8.10;2.90;;;;;;;0.31;68.15;98186.78;124412;1114;23215;-77
2021/03/22 07:44:31;;;;;;;6.47;2.60;;;;;;;0.44;67.89;98194.15;124507;1113;23050;-77
2021/03/22 07:47:17;;;;;;;5.73;2.60;;;;;;;0.50;66.18;98196.09;124503;1115;23084;-77
2021/03/22 07:50:06;;;;;;;5.97;3.00;;;;;;;0.53;66.86;98194.87;124500;1115;23059;-77
2021/03/22 07:52:41;;;;;;;8.03;3.10;;;;;;;0.62;67.54;98203.64;124460;1114;23093;-77
2021/03/22 07:55:27;;;;;;;3.30;1.70;;;;;;;0.65;64.47;98197.92;124356;1116;23238;-77
2021/03/22 07:58:12;;;;;;;5.77;2.60;;;;;;;0.73;65.57;98204.00;124463;1116;23094;-77
2021/03/22 08:00:52;;;;;;;6.03;2.33;;;;;;;0.83;66.31;98206.36;124466;1115;23109;-77
2021/03/22 08:03:42;;;;;;;5.43;2.10;;;;;;;0.88;62.88;98211.99;124650;1115;25947;-77
2021/03/22 08:06:21;;;;;;;6.77;2.43;;;;;;;0.95;64.47;98214.75;124479;1114;23037;-77
2021/03/22 08:08:59;;;;;;;4.75;2.45;;;;;;;1.09;65.41;98211.19;124628;1114;23087;-77
2021/03/22 08:11:54;;;;;;;5.20;2.00;;;;;;;1.22;63.62;98205.16;124616;1115;23106;-77
2021/03/22 08:14:31;;;;;;;5.53;1.80;;;;;;;1.37;61.60;98209.63;124709;1114;27451;-77
2021/03/22 08:17:36;;;;;;;4.63;2.20;;;;;;;1.46;62.32;98211.97;124681;1114;23129;-77
2021/03/22 08:20:31;;;;;;;5.17;1.60;;;;;;;1.50;60.10;98213.23;124485;1114;23090;-77
2021/03/22 08:23:33;;;;;;;5.25;2.10;;;;;;;1.51;61.03;98212.22;124488;1115;23028;-77
2021/03/22 08:26:04;;;;;;;5.20;1.47;;;;;;;1.48;56.10;98215.28;124454;1115;26415;-77
2021/03/22 08:28:45;;;;;;;7.90;2.43;;;;;;;1.47;58.17;98213.64;124388;1116;26415;-77
2021/03/22 08:31:50;;;;;;;3.03;1.20;;;;;;;1.47;56.97;98216.33;124463;1113;26474;-77
2021/03/22 08:34:47;;;;;;;5.93;1.70;;;;;;;1.52;58.63;98218.41;124407;1114;23087;-77
2021/03/22 08:37:29;;;;;;;4.15;1.55;;;;;;;1.67;58.14;98219.17;124410;1116;23161;-77
2021/03/22 08:40:07;;;;;;;2.47;1.00;;;;;;;1.77;53.75;98215.31;124413;1114;23162;-77
2021/03/22 08:42:42;;;;;;;4.13;2.10;;;;;;;1.88;58.17;98220.99;124430;1114;26064;-77
2021/03/22 08:45:32;;;;;;;7.07;2.67;;;;;;;2.03;57.24;98212.82;124399;1116;27242;-77
2021/03/22 08:48:05;;;;;;;3.63;1.47;;;;;;;2.11;55.93;98219.06;124386;1115;23050;-77
2021/03/22 08:50:35;;;;;;;5.80;2.13;;;;;;;2.18;56.00;98215.41;124389;1115;23043;-77
2021/03/22 08:53:20;;;;;;;3.63;1.30;;;;;;;2.31;56.01;98216.52;124411;1114;26224;-78
2021/03/22 08:56:01;;;;;;;4.10;1.43;;;;;;;2.45;56.95;98213.70;124496;1114;23084;-77
2021/03/22 08:58:34;;;;;;;4.33;1.67;;;;;;;2.59;55.91;98219.98;124387;1115;23035;-77
2021/03/22 09:01:18;;;;;;;5.05;1.60;;;;;;;2.61;53.31;98217.09;124384;1115;23164;-77
2021/03/22 09:03:49;;;;;;;4.67;1.33;;;;;;;2.66;53.65;98222.70;124420;1116;26469;-77
2021/03/22 09:06:27;;;;;;;2.45;1.10;;;;;;;2.77;53.66;98222.12;124423;1115;23033;-77
2021/03/22 09:09:04;;;;;;;4.33;1.20;;;;;;;2.91;53.82;98230.25;124404;1116;23215;-77
2021/03/22 09:11:45;;;;;;;3.83;1.33;;;;;;;3.06;56.15;98230.91;124447;1114;23065;-77
2021/03/22 09:14:15;;;;;;;6.57;1.33;;;;;;;3.20;54.60;98227.20;124353;1116;23035;-77
2021/03/22 09:16:50;;;;;;;6.30;1.70;;;;;;;3.31;53.91;98233.03;124392;1115;23043;-77
2021/03/22 09:19:18;;;;;;;3.40;0.93;;;;;;;3.35;53.36;98226.23;124427;1115;23103;-77
2021/03/22 09:22:01;;;;;;;5.37;1.30;;;;;;;3.36;52.38;98217.92;124462;1115;23031;-78
2021/03/22 09:24:40;;;;;;;2.33;1.40;;;;;;;3.48;54.31;98225.42;124577;1115;23032;-78
2021/03/22 09:27:19;;;;;;;5.17;1.30;;;;;;;3.59;51.81;98228.34;124462;1114;26498;-78
2021/03/22 09:29:50;;;;;;;2.77;1.12;;;;;;;3.63;51.65;98226.06;124416;1116;26271;-78
2021/03/22 09:32:29;;;;;;;2.67;0.73;;;;;;;3.70;51.70;98226.05;124423;1115;27368;-78
2021/03/22 09:35:00;;;;;;;3.80;0.90;;;;;;;3.82;52.39;98229.78;124429;1116;23042;-78
2021/03/22 09:38:01;;;;;;;2.40;1.00;;;;;;;3.94;50.96;98222.73;124431;1113;23022;-78
2021/03/22 09:40:29;;;;;;;3.30;0.85;;;;;;;4.10;50.02;98221.48;124465;1116;24672;-78
2021/03/22 09:43:23;;;;;;;4.87;0.80;;;;;;;4.22;50.93;98227.06;124444;1114;23033;-78
2021/03/22 09:46:04;;;;;;;1.75;0.70;;;;;;;4.39;49.54;98227.43;124467;1114;26176;-78
2021/03/22 09:48:41;;;;;;;2.25;0.70;;;;;;;4.48;46.30;98220.80;124425;1116;23096;-78
2021/03/22 09:51:08;;;;;;;4.17;0.87;;;;;;;4.60;49.58;98217.43;124451;1113;26485;-78
2021/03/22 09:54:02;;;;;;;2.63;0.90;;;;;;;4.72;45.87;98218.42;124723;1113;23083;-78
2021/03/22 09:56:39;;;;;;;3.33;0.90;;;;;;;4.74;46.22;98222.55;124603;1111;27348;-78
2021/03/22 09:59:53;;;;;;;1.90;1.10;;;;;;;4.70;44.90;98215.94;124443;1111;23229;-78
2021/03/22 10:02:28;;;;;;;2.20;0.53;;;;;;;4.88;44.99;98214.42;124455;1114;23019;-78
2021/03/22 10:05:20;;;;;;;8.00;0.97;;;;;;;4.97;44.41;98201.52;124413;1113;24788;-78
2021/03/22 10:08:11;;;;;;;1.13;0.50;;;;;;;5.08;40.09;98209.77;124600;1111;23077;-77
2021/03/22 10:10:43;;;;;;;3.63;0.50;;;;;;;5.05;43.49;98206.67;124381;1115;23081;-77
2021/03/22 10:13:23;;;;;;;2.33;0.73;;;;;;;5.12;41.74;98210.98;124612;1111;24633;-77
2021/03/22 10:16:00;;;;;;;2.60;0.70;;;;;;;5.18;40.81;98205.77;124586;1112;23205;-77
2021/03/22 10:19:28;;;;;;;1.30;0.30;;;;;;;5.27;43.23;98207.16;124567;1111;23242;-77
2021/03/22 10:21:57;;;;;;;2.47;0.80;;;;;;;5.37;44.34;98201.30;124605;1113;27432;-78
2021/03/22 10:24:42;;;;;;;3.73;0.83;;;;;;;5.65;40.72;98200.89;124635;1111;23103;-78
2021/03/22 10:27:34;;;;;;;2.03;0.70;;;;;;;5.90;42.20;98196.30;124660;1112;23084;-78
2021/03/22 10:30:10;;;;;;;3.07;0.50;;;;;;;5.80;39.70;98189.75;124440;1113;23092;-78
2021/03/22 10:32:52;;;;;;;1.50;0.60;;;;;;;5.54;41.10;98206.98;124410;1116;27441;-78
2021/03/22 10:35:21;;;;;;;2.60;0.93;;;;;;;5.27;39.88;98216.08;124567;1111;23106;-77
2021/03/22 10:37:52;;;;;;;3.40;0.60;;;;;;;4.91;42.16;98214.82;124723;1111;23703;-77
2021/03/22 10:40:25;;;;;;;4.47;1.87;;;;;;;4.50;44.04;98217.89;124467;1112;27606;-77
2021/03/22 10:42:56;;;;;;;5.00;1.33;;;;;;;4.07;45.83;98230.00;124482;1115;23028;-77
2021/03/22 10:45:23;;;;;;;5.30;1.20;;;;;;;3.74;45.64;98224.62;124503;1113;24756;-77
2021/03/22 10:47:54;;;;;;;4.15;1.75;;;;;;;3.55;49.84;98235.15;124634;1111;24376;-77
2021/03/22 10:50:32;;;;;;;1.57;1.00;;;;;;;3.47;49.00;98221.91;124578;1113;27512;-77
2021/03/22 10:53:15;;;;;;;4.80;0.93;;;;;;;3.44;50.60;98224.18;124519;1114;23037;-77
2021/03/22 10:55:49;;;;;;;3.75;0.70;;;;;;;3.43;46.37;98226.02;124498;1113;24817;-77
2021/03/22 10:58:37;;;;;;;3.05;1.20;;;;;;;3.46;45.23;98225.63;124497;1112;23235;-77
2021/03/22 11:01:08;;;;;;;1.60;0.60;;;;;;;3.57;45.37;98219.61;124469;1113;23090;-77
2021/03/22 11:03:37;;;;;;;1.55;0.80;;;;;;;3.64;45.79;98213.42;124662;1112;23037;-77
2021/03/22 11:06:12;;;;;;;3.30;0.83;;;;;;;3.63;44.74;98217.98;124503;1113;23082;-77
2021/03/22 11:08:53;;;;;;;4.37;1.00;;;;;;;3.60;44.98;98224.59;124611;1111;26411;-77
2021/03/22 11:11:21;;;;;;;8.33;1.30;;;;;;;3.64;45.63;98213.42;124602;1111;23037;-77
2021/03/22 11:13:52;;;;;;;3.37;1.00;;;;;;;3.73;46.29;98221.07;124699;1111;24571;-77
2021/03/22 11:16:31;;;;;;;3.63;1.10;;;;;;;3.80;46.30;98221.90;124532;1113;23261;-77
2021/03/22 11:19:07;;;;;;;3.60;0.90;;;;;;;3.73;45.36;98220.25;124612;1112;26378;-77
2021/03/22 11:21:36;;;;;;;4.73;1.30;;;;;;;3.57;44.00;98219.61;124551;1112;24769;-77
2021/03/22 11:24:17;;;;;;;8.77;0.93;;;;;;;3.35;44.48;98212.77;124619;1111;27683;-77
2021/03/22 11:27:05;;;;;;;4.10;1.43;;;;;;;3.18;46.90;98229.28;124451;1115;23084;-77
2021/03/22 11:30:01;;;;;;;3.87;0.63;;;;;;;3.03;48.53;98240.22;124538;1116;23053;-77
2021/03/22 11:32:34;;;;;;;2.87;1.67;;;;;;;2.88;50.68;98233.33;124471;1115;26462;-77
2021/03/22 11:35:32;;;;;;;4.17;1.80;;;;;;;2.73;53.03;98252.31;124392;1116;26259;-77
2021/03/22 11:38:02;;;;;;;3.43;1.40;;;;;;;2.58;53.57;98255.11;124391;1115;23084;-77
2021/03/22 11:40:33;;;;;;;5.30;2.00;;;;;;;2.53;53.21;98254.87;124486;1116;24616;-77
2021/03/22 11:43:24;;;;;;;6.40;1.70;;;;;;;2.56;55.05;98241.05;124432;1116;27031;-77
2021/03/22 11:45:51;;;;;;;5.87;2.07;;;;;;;2.66;54.91;98239.66;124491;1116;24078;-77
2021/03/22 11:48:20;;;;;;;3.30;1.33;;;;;;;2.80;53.91;98240.55;124419;1115;23094;-77
2021/03/22 11:51:03;;;;;;;3.00;1.33;;;;;;;2.92;52.48;98231.89;124367;1116;23110;-77
2021/03/22 11:53:31;;;;;;;4.73;1.47;;;;;;;3.05;48.63;98223.88;124389;1114;23116;-77
2021/03/22 11:56:24;;;;;;;2.53;0.80;;;;;;;3.21;49.36;98228.06;124484;1116;23048;-77
2021/03/22 11:58:50;;;;;;;4.73;1.00;;;;;;;3.31;47.34;98216.89;124674;1114;23021;-78
2021/03/22 12:01:30;;;;;;;4.93;1.40;;;;;;;3.35;48.10;98213.59;124503;1114;23356;-77
2021/03/22 12:04:06;;;;;;;3.47;1.67;;;;;;;3.43;47.73;98223.33;124570;1115;23037;-78
2021/03/22 12:06:47;;;;;;;51.57;13.63;;;;;;;3.51;47.29;98230.41;124470;1115;26418;-78